Time;durP1;ratioP1;P1;durP2;ratioP2;P2;SDS_P1;SDS_P2;PMS_P1;PMS_P2;Temp;Humidity;BMP_temperature;BMP_pressure;BME280_temperature;BME280_humidity;BME280_pressure;Samples;Min_cycle;Max_cycle;Signal;HPM_P1;HPM_P2
2023/09/08 00:01:31;;;;;;;10.60;5.30;;;21.90;95.00;;;;;;5018631;28;20421;-82
2023/09/08 00:03:59;;;;;;;9.02;5.68;;;22.00;94.80;;;;;;5024368;28;20045;-84
2023/09/08 00:06:27;;;;;;;9.18;5.45;;;22.00;94.70;;;;;;5006942;28;20540;-84
2023/09/08 00:08:55;;;;;;;8.45;5.47;;;22.10;94.70;;;;;;5023260;28;20042;-84
2023/09/08 00:11:23;;;;;;;9.73;5.70;;;21.90;94.70;;;;;;5023239;28;20108;-84
2023/09/08 00:13:52;;;;;;;10.35;5.57;;;21.80;95.20;;;;;;5026877;28;20511;-86
2023/09/08 00:16:22;;;;;;;9.38;6.28;;;22.00;95.10;;;;;;5030423;28;20041;-85
2023/09/08 00:18:50;;;;;;;10.05;5.80;;;21.60;95.50;;;;;;5019801;28;20057;-88
2023/09/08 00:21:17;;;;;;;8.65;5.30;;;21.20;96.30;;;;;;5031158;28;20732;-87
2023/09/08 00:23:44;;;;;;;12.98;6.13;;;21.00;97.20;;;;;;5020877;28;20120;-88
2023/09/08 00:26:12;;;;;;;8.68;5.63;;;21.00;97.50;;;;;;5024241;28;20061;-87
2023/09/08 00:28:40;;;;;;;10.27;5.43;;;20.90;97.60;;;;;;5021736;28;20054;-90
2023/09/08 00:31:07;;;;;;;8.18;5.40;;;21.10;97.40;;;;;;5030797;28;20128;-84
2023/09/08 00:33:35;;;;;;;7.97;5.85;;;21.20;97.60;;;;;;5023256;28;20527;-83
2023/09/08 00:36:03;;;;;;;9.85;5.32;;;21.00;98.10;;;;;;5024135;28;20041;-81
2023/09/08 00:38:30;;;;;;;8.85;5.60;;;20.80;98.70;;;;;;5022987;28;20049;-81
2023/09/08 00:41:00;;;;;;;8.15;5.80;;;20.90;98.70;;;;;;5025569;28;20220;-85
2023/09/08 00:43:28;;;;;;;10.07;5.53;;;21.20;98.60;;;;;;5022388;28;20525;-84
2023/09/08 00:45:58;;;;;;;7.35;5.35;;;21.30;98.30;;;;;;5019989;28;20037;-86
2023/09/08 00:48:27;;;;;;;8.13;5.60;;;21.40;98.10;;;;;;5020119;28;20042;-85
2023/09/08 00:50:55;;;;;;;9.63;6.50;;;21.00;99.00;;;;;;5024280;28;20034;-87
2023/09/08 00:53:23;;;;;;;10.40;5.82;;;21.00;99.20;;;;;;5019372;28;20192;-86
2023/09/08 00:55:51;;;;;;;9.20;5.97;;;21.10;98.90;;;;;;5021993;28;20520;-86
2023/09/08 00:58:18;;;;;;;9.07;5.43;;;21.10;99.20;;;;;;5020709;28;20041;-80
2023/09/08 01:00:46;;;;;;;7.53;5.80;;;21.00;99.30;;;;;;5012889;28;20073;-84
2023/09/08 01:03:13;;;;;;;10.60;5.85;;;20.90;99.60;;;;;;5003987;28;20045;-85
2023/09/08 01:05:41;;;;;;;11.07;5.82;;;21.10;99.50;;;;;;5005680;28;20049;-86
2023/09/08 01:08:11;;;;;;;7.47;5.35;;;21.20;99.50;;;;;;5002519;28;20041;-85
2023/09/08 01:10:39;;;;;;;9.60;5.78;;;21.40;99.40;;;;;;5015288;28;20080;-86
2023/09/08 01:13:06;;;;;;;9.13;5.97;;;20.90;99.70;;;;;;5028109;28;20175;-86
2023/09/08 01:15:33;;;;;;;8.13;5.43;;;21.10;99.90;;;;;;5022288;28;20096;-83
2023/09/08 01:18:01;;;;;;;8.57;5.30;;;21.20;99.40;;;;;;5008489;28;20113;-84
2023/09/08 01:21:21;;;;;;;10.10;5.45;;;21.30;99.60;;;;;;5028061;28;20041;-85
2023/09/08 01:24:06;;;;;;;9.13;5.87;;;21.30;99.70;;;;;;5009647;28;20060;-84
2023/09/08 01:26:40;;;;;;;10.02;6.25;;;21.20;99.70;;;;;;5028526;28;20678;-83
2023/09/08 01:29:10;;;;;;;7.93;5.65;;;20.80;99.90;;;;;;5022780;28;20041;-83
2023/09/08 01:31:38;;;;;;;10.35;6.22;;;20.50;99.90;;;;;;5026674;28;20200;-86
2023/09/08 01:34:08;;;;;;;8.90;5.97;;;20.80;99.90;;;;;;5021985;28;20038;-86
2023/09/08 01:36:37;;;;;;;8.43;5.53;;;21.00;99.90;;;;;;5021634;28;20061;-85
2023/09/08 01:39:04;;;;;;;8.75;5.75;;;21.00;99.90;;;;;;5019837;28;20037;-83
2023/09/08 01:41:32;;;;;;;10.40;6.50;;;21.10;99.90;;;;;;5020550;28;20048;-86
2023/09/08 01:44:05;;;;;;;9.82;5.85;;;21.00;99.90;;;;;;5014138;28;20041;-86
2023/09/08 01:46:32;;;;;;;9.00;5.72;;;20.60;99.90;;;;;;5018250;28;20356;-84
2023/09/08 01:48:59;;;;;;;9.60;5.43;;;20.50;99.90;;;;;;5020121;28;20540;-83
2023/09/08 01:51:27;;;;;;;8.95;5.40;;;20.30;99.90;;;;;;5002636;28;20522;-82
2023/09/08 01:53:54;;;;;;;7.80;5.35;;;20.10;99.90;;;;;;5003791;28;20038;-85
2023/09/08 01:56:22;;;;;;;7.72;5.72;;;20.50;99.90;;;;;;5016696;28;20092;-81
2023/09/08 01:58:50;;;;;;;8.13;5.35;;;20.60;99.90;;;;;;5021741;28;20045;-81
2023/09/08 02:01:17;;;;;;;9.25;5.93;;;20.60;99.90;;;;;;5018176;28;20062;-82
2023/09/08 02:03:45;;;;;;;8.88;5.35;;;20.50;99.90;;;;;;5015661;28;20463;-80
2023/09/08 02:06:12;;;;;;;9.05;5.82;;;20.80;99.90;;;;;;5018467;28;20533;-80
2023/09/08 02:08:39;;;;;;;7.28;4.97;;;21.00;99.90;;;;;;5017624;28;20049;-82
2023/09/08 02:11:11;;;;;;;7.60;5.50;;;21.10;99.90;;;;;;5009292;28;20378;-83
2023/09/08 02:13:42;;;;;;;9.88;6.00;;;21.30;99.90;;;;;;5021413;28;20041;-83
2023/09/08 02:16:18;;;;;;;9.15;5.95;;;21.20;99.90;;;;;;5021301;28;20045;-83
2023/09/08 02:18:45;;;;;;;9.77;5.78;;;20.90;99.90;;;;;;5022451;28;20041;-84
2023/09/08 02:21:12;;;;;;;9.60;5.80;;;20.40;99.90;;;;;;5006718;28;20098;-84
2023/09/08 02:23:40;;;;;;;7.95;5.90;;;20.80;99.90;;;;;;5017735;28;20120;-85
2023/09/08 02:26:08;;;;;;;7.50;5.55;;;20.60;99.90;;;;;;5024342;28;20091;-86
2023/09/08 02:28:35;;;;;;;8.90;5.68;;;20.30;99.90;;;;;;5010933;28;20049;-84
2023/09/08 02:31:03;;;;;;;9.40;6.05;;;20.20;99.90;;;;;;5010192;28;20125;-87
2023/09/08 02:33:31;;;;;;;9.18;6.13;;;20.00;99.90;;;;;;5001793;28;20054;-86
2023/09/08 02:36:07;;;;;;;9.73;5.82;;;20.00;99.90;;;;;;5026191;28;20084;-86
2023/09/08 02:38:35;;;;;;;14.02;5.82;;;20.00;99.90;;;;;;5015924;28;20472;-86
2023/09/08 02:41:04;;;;;;;12.63;6.13;;;20.00;99.90;;;;;;5005103;28;20045;-87
2023/09/08 02:43:31;;;;;;;10.23;5.95;;;20.00;99.90;;;;;;5015531;28;20045;-86
2023/09/08 02:45:59;;;;;;;8.07;5.60;;;20.00;99.90;;;;;;5015838;28;20117;-88
2023/09/08 02:48:26;;;;;;;7.60;5.43;;;20.20;99.90;;;;;;5021073;28;20065;-87
2023/09/08 02:50:53;;;;;;;9.45;5.47;;;20.10;99.90;;;;;;5007021;28;20040;-88
2023/09/08 02:53:21;;;;;;;9.18;6.10;;;20.00;99.90;;;;;;5022630;28;20053;-87
2023/09/08 02:55:48;;;;;;;8.88;6.15;;;20.00;99.90;;;;;;5001286;28;20089;-88
2023/09/08 02:58:15;;;;;;;9.82;5.70;;;20.10;99.90;;;;;;5022855;28;20038;-86
2023/09/08 03:00:42;;;;;;;12.50;6.00;;;20.10;99.90;;;;;;5015866;28;20119;-87
2023/09/08 03:03:09;;;;;;;10.60;5.75;;;20.50;99.90;;;;;;5017426;28;20128;-86
2023/09/08 03:05:37;;;;;;;10.10;5.78;;;20.80;99.90;;;;;;5016121;28;20080;-86
2023/09/08 03:08:07;;;;;;;9.23;5.88;;;20.90;99.90;;;;;;5016429;28;20473;-86
2023/09/08 03:10:34;;;;;;;8.95;6.07;;;21.00;99.90;;;;;;5023151;28;20080;-88
2023/09/08 03:13:02;;;;;;;8.90;5.90;;;21.10;99.90;;;;;;5013452;28;20077;-83
2023/09/08 03:15:30;;;;;;;8.15;5.70;;;20.80;99.90;;;;;;5022082;28;20122;-84
2023/09/08 03:17:58;;;;;;;14.43;5.95;;;20.50;99.90;;;;;;5013421;28;20495;-82
2023/09/08 03:20:26;;;;;;;8.45;5.65;;;20.20;99.90;;;;;;5004166;28;20037;-86
2023/09/08 03:22:53;;;;;;;9.85;6.20;;;20.10;99.90;;;;;;5021403;28;20054;-89
2023/09/08 03:25:21;;;;;;;8.00;5.95;;;20.20;99.90;;;;;;5017447;28;20049;-88
2023/09/08 03:27:48;;;;;;;11.25;5.63;;;20.30;99.90;;;;;;5015954;28;20387;-85
2023/09/08 03:30:15;;;;;;;8.40;5.93;;;20.50;99.90;;;;;;5010161;28;20041;-87
2023/09/08 03:32:42;;;;;;;7.68;5.45;;;20.30;99.90;;;;;;4997409;28;20049;-80
2023/09/08 03:35:09;;;;;;;9.10;6.05;;;20.40;99.90;;;;;;5023926;28;20037;-86
2023/09/08 03:37:37;;;;;;;10.63;5.93;;;20.70;99.90;;;;;;5012819;28;20038;-86
2023/09/08 03:40:05;;;;;;;9.35;5.60;;;20.80;99.90;;;;;;5019625;28;20073;-86
2023/09/08 03:42:34;;;;;;;10.07;5.60;;;21.00;99.90;;;;;;5016051;28;20072;-83
2023/09/08 03:45:02;;;;;;;10.13;5.60;;;20.90;99.90;;;;;;5020076;28;20054;-85
2023/09/08 03:47:29;;;;;;;10.45;5.78;;;21.10;99.90;;;;;;5022093;28;20054;-86
2023/09/08 03:49:56;;;;;;;8.55;5.47;;;21.20;99.90;;;;;;5020261;28;20041;-83
2023/09/08 03:52:24;;;;;;;9.23;5.57;;;21.20;99.90;;;;;;5022029;28;20034;-83
2023/09/08 03:54:52;;;;;;;9.93;5.63;;;21.20;99.90;;;;;;5016736;28;20484;-83
2023/09/08 03:57:19;;;;;;;9.63;5.45;;;21.20;99.90;;;;;;5017201;28;20042;-81
2023/09/08 03:59:46;;;;;;;11.05;6.32;;;21.20;99.90;;;;;;5017952;28;20331;-81
2023/09/08 04:02:13;;;;;;;8.63;5.55;;;21.20;99.90;;;;;;5021123;28;20050;-80
2023/09/08 04:04:41;;;;;;;8.85;5.85;;;20.60;99.90;;;;;;4999029;28;20438;-81
2023/09/08 04:07:08;;;;;;;10.18;5.55;;;20.30;99.90;;;;;;5015236;28;20049;-80
2023/09/08 04:09:35;;;;;;;8.82;5.82;;;20.20;99.90;;;;;;5018370;28;20076;-84
2023/09/08 04:12:02;;;;;;;7.97;5.72;;;20.10;99.90;;;;;;5020846;28;20432;-82
2023/09/08 04:14:30;;;;;;;11.65;6.32;;;19.90;99.90;;;;;;5019746;28;20404;-79
2023/09/08 04:16:57;;;;;;;9.20;5.68;;;19.90;99.90;;;;;;5015425;28;20038;-83
2023/09/08 04:19:25;;;;;;;8.90;5.75;;;20.00;99.90;;;;;;5021701;28;20507;-82
2023/09/08 04:21:52;;;;;;;8.75;5.25;;;20.20;99.90;;;;;;5007208;28;20149;-83
2023/09/08 04:24:20;;;;;;;11.10;6.20;;;20.20;99.90;;;;;;5022051;28;20033;-82
2023/09/08 04:26:47;;;;;;;9.68;5.78;;;20.00;99.90;;;;;;5028356;28;20437;-84
2023/09/08 04:29:14;;;;;;;8.30;5.70;;;20.30;99.90;;;;;;5018117;28;20040;-83
2023/09/08 04:31:42;;;;;;;11.00;5.75;;;20.20;99.90;;;;;;5019338;28;20615;-83
2023/09/08 04:34:09;;;;;;;10.63;5.80;;;20.10;99.90;;;;;;5020176;28;20043;-83
2023/09/08 04:36:37;;;;;;;12.75;5.93;;;20.30;99.90;;;;;;5019693;28;20128;-84
2023/09/08 04:39:04;;;;;;;8.15;5.45;;;20.40;99.90;;;;;;5003764;28;20575;-84
2023/09/08 04:41:31;;;;;;;9.50;5.80;;;20.60;99.90;;;;;;5020185;28;20451;-83
2023/09/08 04:43:59;;;;;;;7.75;5.18;;;20.70;99.90;;;;;;5014608;28;20038;-84
2023/09/08 04:46:26;;;;;;;7.80;5.53;;;20.50;99.90;;;;;;5001728;28;20141;-83
2023/09/08 04:48:53;;;;;;;11.00;5.80;;;20.40;99.90;;;;;;5018200;28;20048;-83
2023/09/08 04:51:21;;;;;;;8.95;6.15;;;20.40;99.90;;;;;;5020152;28;20595;-82
2023/09/08 04:53:48;;;;;;;11.82;6.05;;;20.70;99.90;;;;;;5014231;28;20563;-84
2023/09/08 04:56:15;;;;;;;8.95;5.80;;;20.90;99.90;;;;;;5021867;28;20034;-82
2023/09/08 04:58:43;;;;;;;9.80;5.55;;;21.10;99.90;;;;;;5014849;28;20399;-83
2023/09/08 05:01:10;;;;;;;12.45;5.60;;;21.20;99.90;;;;;;5020516;28;20038;-81
2023/09/08 05:03:37;;;;;;;9.45;6.55;;;21.30;99.90;;;;;;5015876;28;20489;-82
2023/09/08 05:06:05;;;;;;;8.30;5.90;;;21.30;99.90;;;;;;5019777;28;20463;-83
2023/09/08 05:08:32;;;;;;;8.63;5.72;;;21.30;99.90;;;;;;5004495;28;20057;-85
2023/09/08 05:11:02;;;;;;;9.60;5.57;;;21.30;99.90;;;;;;5007142;28;20045;-84
2023/09/08 05:13:30;;;;;;;10.50;5.53;;;21.20;99.90;;;;;;5021125;28;20060;-85
2023/09/08 05:16:10;;;;;;;9.73;6.00;;;21.10;99.90;;;;;;5016475;28;20125;-83
2023/09/08 05:18:41;;;;;;;7.70;5.10;;;21.00;99.90;;;;;;5013447;28;20081;-84
2023/09/08 05:21:08;;;;;;;;;;;21.10;99.90;;;;;;5022050;28;20030;-82
2023/09/08 05:23:36;;;;;;;9.07;5.90;;;20.80;99.90;;;;;;5022857;28;19928;-81
2023/09/08 05:26:03;;;;;;;9.35;5.60;;;20.80;99.90;;;;;;5011497;28;20117;-84
2023/09/08 05:28:32;;;;;;;9.18;6.03;;;20.50;99.90;;;;;;5020687;28;20081;-84
2023/09/08 05:31:04;;;;;;;11.02;6.50;;;20.40;99.90;;;;;;5021944;28;20097;-86
2023/09/08 05:33:37;;;;;;;9.63;5.85;;;20.80;99.90;;;;;;4996344;28;20509;-86
2023/09/08 05:36:26;;;;;;;8.90;5.70;;;21.20;99.90;;;;;;4992197;28;20043;-87
2023/09/08 05:38:53;;;;;;;10.65;5.78;;;21.30;99.90;;;;;;5008212;28;20081;-86
2023/09/08 05:41:20;;;;;;;9.80;5.72;;;21.50;99.90;;;;;;5006222;28;20033;-82
2023/09/08 05:43:48;;;;;;;8.52;5.68;;;21.60;99.90;;;;;;5017905;28;20048;-86
2023/09/08 05:46:15;;;;;;;11.25;6.18;;;21.70;99.90;;;;;;5022747;28;20041;-84
2023/09/08 05:48:42;;;;;;;9.77;6.45;;;21.70;99.90;;;;;;5006518;28;20053;-84
2023/09/08 05:51:09;;;;;;;7.65;5.68;;;21.70;99.90;;;;;;5023867;28;20044;-86
2023/09/08 05:53:39;;;;;;;10.80;5.65;;;21.60;99.90;;;;;;5020300;28;20396;-85
2023/09/08 05:56:07;;;;;;;11.95;7.47;;;21.70;99.90;;;;;;5028922;28;20053;-86
2023/09/08 05:58:34;;;;;;;14.90;6.97;;;21.60;99.90;;;;;;5005744;28;20045;-85
2023/09/08 06:01:04;;;;;;;9.10;6.33;;;21.50;99.90;;;;;;5017248;28;20052;-85
2023/09/08 06:03:31;;;;;;;11.77;7.10;;;21.40;99.90;;;;;;5027322;28;20591;-87
2023/09/08 06:06:13;;;;;;;13.52;6.28;;;21.60;99.90;;;;;;5042162;28;20022;-85
2023/09/08 06:08:56;;;;;;;11.00;6.35;;;21.70;99.90;;;;;;5023760;28;20041;-90
2023/09/08 06:11:38;;;;;;;37.78;27.60;;;21.60;99.90;;;;;;5019274;28;20499;-81
2023/09/08 06:14:05;;;;;;;66.18;45.45;;;21.70;99.90;;;;;;5022266;28;20485;-81
2023/09/08 06:16:32;;;;;;;18.63;13.88;;;21.80;99.90;;;;;;5021863;28;20452;-82
2023/09/08 06:19:03;;;;;;;19.17;13.15;;;21.80;99.90;;;;;;5026038;28;20061;-83
2023/09/08 06:21:30;;;;;;;58.97;41.28;;;21.60;99.90;;;;;;5022777;28;20041;-86
2023/09/08 06:23:57;;;;;;;42.28;31.48;;;21.80;99.90;;;;;;5026372;28;20129;-82
2023/09/08 06:26:25;;;;;;;30.92;23.05;;;21.80;99.90;;;;;;5021694;28;20083;-81
2023/09/08 06:28:53;;;;;;;65.53;46.75;;;21.90;99.90;;;;;;5019372;28;20069;-86
2023/09/08 06:31:20;;;;;;;179.82;125.72;;;21.90;99.90;;;;;;5021123;28;20045;-85
2023/09/08 06:33:49;;;;;;;28.02;22.20;;;22.00;99.90;;;;;;5023265;28;20045;-86
2023/09/08 06:36:21;;;;;;;17.20;10.70;;;22.00;99.90;;;;;;5019224;28;20069;-87
2023/09/08 06:38:48;;;;;;;12.68;9.52;;;22.00;99.90;;;;;;5023105;28;20421;-85
2023/09/08 06:41:17;;;;;;;12.18;8.98;;;22.00;99.90;;;;;;5024386;28;20480;-83
2023/09/08 06:43:45;;;;;;;15.00;9.95;;;22.00;99.90;;;;;;5013804;28;20041;-83
2023/09/08 06:46:12;;;;;;;14.05;8.27;;;22.00;99.90;;;;;;4999028;28;20061;-82
2023/09/08 06:48:43;;;;;;;12.63;8.48;;;22.00;99.90;;;;;;5009316;28;20145;-81
2023/09/08 06:51:10;;;;;;;11.80;8.45;;;22.10;99.90;;;;;;5012920;28;20033;-84
2023/09/08 06:53:38;;;;;;;12.30;7.85;;;22.10;99.90;;;;;;5008787;28;20081;-85
2023/09/08 06:56:05;;;;;;;11.57;7.68;;;22.10;99.90;;;;;;5016853;28;20037;-83
2023/09/08 06:58:32;;;;;;;18.85;8.82;;;22.10;99.90;;;;;;5013336;28;20055;-85
2023/09/08 07:01:00;;;;;;;10.95;7.55;;;22.10;99.90;;;;;;5004423;28;20066;-81
2023/09/08 07:03:28;;;;;;;13.25;7.10;;;22.30;99.90;;;;;;5015550;28;20413;-85
2023/09/08 07:05:55;;;;;;;12.45;8.02;;;22.40;99.90;;;;;;5009298;28;20401;-86
2023/09/08 07:08:23;;;;;;;13.95;8.05;;;22.40;99.90;;;;;;5009529;28;20085;-84
2023/09/08 07:10:54;;;;;;;10.38;7.22;;;22.30;99.90;;;;;;5024755;28;20069;-87
2023/09/08 07:13:23;;;;;;;10.93;7.68;;;22.30;99.90;;;;;;5022475;28;20049;-82
2023/09/08 07:15:51;;;;;;;9.57;6.93;;;22.40;99.90;;;;;;5013419;28;20053;-85
2023/09/08 07:18:18;;;;;;;10.52;7.10;;;22.50;99.90;;;;;;5020554;28;20065;-84
2023/09/08 07:20:48;;;;;;;10.82;6.90;;;22.50;99.90;;;;;;5014257;28;20038;-84
2023/09/08 07:23:18;;;;;;;17.80;9.27;;;22.50;99.90;;;;;;5028884;28;20049;-84
2023/09/08 07:25:48;;;;;;;16.42;11.65;;;22.50;99.90;;;;;;5022289;28;20052;-86
2023/09/08 07:28:16;;;;;;;13.77;10.15;;;22.60;99.90;;;;;;5024790;28;20045;-84
2023/09/08 07:30:43;;;;;;;10.57;8.13;;;22.70;99.90;;;;;;5020156;28;20136;-85
2023/09/08 07:33:14;;;;;;;10.02;7.38;;;22.60;99.90;;;;;;5006081;28;20041;-83
2023/09/08 07:35:42;;;;;;;9.95;6.90;;;22.70;99.90;;;;;;5017077;28;20048;-85
2023/09/08 07:38:10;;;;;;;9.93;7.00;;;22.60;99.90;;;;;;5010764;28;20758;-85
2023/09/08 07:40:38;;;;;;;10.10;7.10;;;22.70;99.90;;;;;;4999417;28;20076;-83
2023/09/08 07:43:08;;;;;;;14.02;7.63;;;22.70;99.90;;;;;;5024518;28;20046;-86
2023/09/08 07:45:55;;;;;;;11.60;6.97;;;22.80;99.90;;;;;;5009494;28;20045;-86
2023/09/08 07:48:23;;;;;;;11.00;6.53;;;23.00;99.90;;;;;;5029697;28;20103;-85
2023/09/08 07:50:51;;;;;;;15.40;7.97;;;23.20;99.90;;;;;;5006607;28;20038;-81
2023/09/08 07:53:19;;;;;;;13.50;6.78;;;23.20;99.90;;;;;;5015458;28;20133;-82
2023/09/08 07:55:48;;;;;;;10.48;6.75;;;23.30;99.90;;;;;;5012596;28;20061;-81
2023/09/08 07:58:15;;;;;;;256.95;159.20;;;23.70;99.90;;;;;;5011382;28;20038;-80
2023/09/08 08:00:42;;;;;;;19.55;16.77;;;23.80;99.90;;;;;;5013254;28;20050;-79
2023/09/08 08:03:10;;;;;;;16.90;8.75;;;23.40;99.90;;;;;;5009525;28;20068;-77
2023/09/08 08:05:37;;;;;;;9.88;6.85;;;23.30;99.90;;;;;;5026439;28;20045;-78
2023/09/08 08:08:05;;;;;;;13.57;8.05;;;23.40;99.90;;;;;;5018570;28;20409;-79
2023/09/08 08:10:50;;;;;;;12.75;7.45;;;23.20;99.90;;;;;;5023917;28;20101;-82
2023/09/08 08:13:17;;;;;;;14.27;8.15;;;23.10;99.90;;;;;;5019325;28;20136;-79
2023/09/08 08:15:48;;;;;;;16.25;7.63;;;23.60;99.90;;;;;;5018695;28;20060;-80
2023/09/08 08:18:15;;;;;;;;;;;24.00;99.90;;;;;;5014464;28;20109;-79
2023/09/08 08:20:42;;;;;;;14.88;7.75;;;24.30;99.90;;;;;;5012438;28;20373;-82
2023/09/08 08:23:10;;;;;;;13.55;6.75;;;24.40;99.90;;;;;;5022672;28;20033;-81
2023/09/08 08:25:38;;;;;;;16.25;6.78;;;24.60;99.90;;;;;;5016232;28;20481;-83
2023/09/08 08:28:10;;;;;;;42.17;26.85;;;24.90;99.90;;;;;;5025093;28;20045;-83
2023/09/08 08:30:38;;;;;;;93.10;63.95;;;25.10;99.70;;;;;;5022144;28;20045;-83
2023/09/08 08:33:14;;;;;;;16.70;11.40;;;25.30;99.30;;;;;;5005570;28;20041;-86
2023/09/08 08:35:48;;;;;;;13.45;8.02;;;25.20;98.40;;;;;;5018417;28;20346;-81
2023/09/08 08:38:40;;;;;;;15.43;7.13;;;23.90;99.80;;;;;;5021972;28;20405;-80
2023/09/08 08:41:10;;;;;;;9.52;6.60;;;24.10;99.00;;;;;;5019033;28;20128;-83
2023/09/08 08:43:39;;;;;;;12.57;7.38;;;24.40;97.90;;;;;;5016259;28;20402;-81
2023/09/08 08:46:07;;;;;;;14.48;7.15;;;24.40;98.10;;;;;;5017896;28;20033;-82
2023/09/08 08:48:36;;;;;;;13.82;6.68;;;25.10;97.10;;;;;;5016257;28;20046;-81
2023/09/08 08:51:05;;;;;;;12.68;7.22;;;25.50;96.40;;;;;;4998600;28;20061;-81
2023/09/08 08:53:35;;;;;;;18.20;7.85;;;25.60;95.90;;;;;;5020148;28;20057;-80
2023/09/08 08:56:06;;;;;;;15.10;7.75;;;25.70;95.70;;;;;;5023027;28;20768;-82
2023/09/08 08:58:35;;;;;;;17.02;7.40;;;25.70;95.20;;;;;;5014913;28;20057;-80
2023/09/08 09:01:03;;;;;;;11.30;5.93;;;25.70;94.40;;;;;;5020083;28;20061;-81
2023/09/08 09:03:31;;;;;;;12.45;6.35;;;25.60;93.40;;;;;;5021975;28;20037;-80
2023/09/08 09:05:59;;;;;;;14.15;6.85;;;25.70;93.60;;;;;;5021889;28;20421;-81
2023/09/08 09:08:28;;;;;;;46.03;32.13;;;25.90;93.50;;;;;;5020868;28;20117;-82
2023/09/08 09:10:57;;;;;;;169.07;126.18;;;26.00;92.90;;;;;;5023777;28;20065;-81
2023/09/08 09:13:25;;;;;;;31.85;23.85;;;26.00;92.50;;;;;;5025712;28;20034;-82
2023/09/08 09:16:03;;;;;;;12.07;9.27;;;25.90;91.20;;;;;;5008656;28;20060;-83
2023/09/08 09:18:31;;;;;;;18.20;8.48;;;26.10;91.00;;;;;;5016685;28;20111;-78
2023/09/08 09:21:00;;;;;;;13.23;7.32;;;26.40;91.30;;;;;;5022615;28;20095;-80
2023/09/08 09:23:32;;;;;;;13.15;6.25;;;26.40;90.70;;;;;;5015834;28;20061;-79
2023/09/08 09:26:03;;;;;;;10.68;6.88;;;26.40;90.10;;;;;;5015096;28;20041;-80
2023/09/08 09:28:31;;;;;;;9.75;5.90;;;26.40;89.80;;;;;;5016251;28;20100;-80
2023/09/08 09:30:59;;;;;;;9.52;4.68;;;26.40;89.50;;;;;;5017281;28;20084;-81
2023/09/08 09:33:28;;;;;;;16.02;6.28;;;26.30;87.30;;;;;;5021606;28;20068;-80
2023/09/08 09:35:55;;;;;;;9.20;5.65;;;26.40;87.50;;;;;;5003654;28;20050;-80
2023/09/08 09:38:28;;;;;;;9.55;6.03;;;26.30;86.00;;;;;;5012667;28;20065;-79
2023/09/08 09:40:56;;;;;;;10.48;5.65;;;26.30;88.30;;;;;;5003925;28;20046;-79
2023/09/08 09:43:24;;;;;;;7.57;5.13;;;26.30;87.30;;;;;;5006969;28;20055;-81
2023/09/08 09:45:53;;;;;;;8.90;5.65;;;26.10;86.50;;;;;;5019936;28;20038;-80
2023/09/08 09:48:23;;;;;;;8.43;4.93;;;26.20;86.50;;;;;;5007077;28;20493;-83
2023/09/08 09:50:52;;;;;;;8.10;5.18;;;26.20;86.50;;;;;;5010250;28;20594;-81
2023/09/08 09:53:21;;;;;;;8.43;4.97;;;25.90;86.60;;;;;;5022425;28;20038;-78
2023/09/08 09:55:48;;;;;;;10.52;5.18;;;26.10;86.70;;;;;;5022379;28;20069;-82
2023/09/08 09:58:16;;;;;;;9.43;4.90;;;26.00;85.80;;;;;;5025011;28;20037;-82
2023/09/08 10:00:47;;;;;;;11.70;5.88;;;25.80;85.20;;;;;;5018630;28;20073;-82
2023/09/08 10:03:30;;;;;;;9.63;5.72;;;25.80;85.80;;;;;;5022551;28;20041;-81
2023/09/08 10:05:58;;;;;;;8.48;5.50;;;25.60;86.00;;;;;;5031659;28;20393;-83
2023/09/08 10:08:28;;;;;;;10.82;5.10;;;25.90;85.90;;;;;;5004137;28;20033;-81
2023/09/08 10:10:57;;;;;;;9.85;5.35;;;25.80;85.00;;;;;;5024955;28;20041;-82
2023/09/08 10:13:28;;;;;;;11.10;5.15;;;25.60;85.90;;;;;;5022153;28;20030;-82
2023/09/08 10:15:58;;;;;;;11.40;5.00;;;25.80;85.50;;;;;;5027695;28;20400;-84
2023/09/08 10:18:33;;;;;;;7.88;4.60;;;25.60;86.40;;;;;;5021913;28;20053;-81
2023/09/08 10:21:05;;;;;;;8.77;5.32;;;25.60;86.00;;;;;;5025260;28;20045;-80
2023/09/08 10:23:42;;;;;;;8.73;5.07;;;26.00;86.20;;;;;;5020684;28;20119;-80
2023/09/08 10:26:12;;;;;;;57.50;39.30;;;26.30;84.40;;;;;;5001303;28;20042;-82
2023/09/08 10:28:41;;;;;;;18.13;13.38;;;26.40;84.90;;;;;;5018317;28;20073;-79
2023/09/08 10:31:09;;;;;;;15.93;6.03;;;26.20;83.50;;;;;;5010147;28;20054;-79
2023/09/08 10:33:45;;;;;;;8.18;5.10;;;26.10;82.90;;;;;;5002339;28;20063;-81
2023/09/08 10:36:13;;;;;;;9.75;5.47;;;25.90;83.40;;;;;;5018118;28;20065;-81
2023/09/08 10:38:47;;;;;;;7.32;4.68;;;25.50;84.40;;;;;;5000402;28;20397;-82
2023/09/08 10:41:17;;;;;;;8.65;4.57;;;25.90;83.40;;;;;;5019546;28;20430;-82
2023/09/08 10:44:04;;;;;;;9.88;4.50;;;26.10;82.80;;;;;;5025958;28;20132;-82
2023/09/08 10:46:34;;;;;;;8.60;4.82;;;26.50;81.90;;;;;;5013496;28;20375;-83
2023/09/08 10:49:04;;;;;;;9.38;4.53;;;26.40;81.20;;;;;;5019267;28;20405;-81
2023/09/08 10:51:38;;;;;;;9.98;5.30;;;26.30;82.10;;;;;;5004563;28;20115;-83
2023/09/08 10:54:18;;;;;;;9.63;5.35;;;27.10;80.80;;;;;;5010866;28;20063;-83
2023/09/08 10:57:12;;;;;;;11.43;5.70;;;27.70;79.60;;;;;;5011916;28;20046;-78
2023/09/08 10:59:52;;;;;;;8.30;4.75;;;28.10;78.80;;;;;;5032734;28;20516;-81
2023/09/08 11:02:41;;;;;;;10.23;5.68;;;27.70;77.20;;;;;;5018972;28;20137;-81
2023/09/08 11:05:13;;;;;;;10.27;4.95;;;28.20;77.40;;;;;;4987076;28;20057;-83
2023/09/08 11:07:42;;;;;;;7.50;4.57;;;28.60;76.60;;;;;;5008710;28;20103;-80
2023/09/08 11:10:11;;;;;;;9.10;5.43;;;28.80;75.30;;;;;;5009015;28;20444;-81
2023/09/08 11:12:39;;;;;;;8.05;4.93;;;28.70;74.50;;;;;;5018782;28;20040;-80
2023/09/08 11:15:08;;;;;;;7.57;5.22;;;28.10;74.40;;;;;;5023113;28;20076;-81
2023/09/08 11:17:41;;;;;;;9.80;5.28;;;27.80;75.40;;;;;;5025657;28;20046;-81
2023/09/08 11:20:10;;;;;;;7.70;5.03;;;27.70;75.70;;;;;;5003681;28;20072;-80
2023/09/08 11:22:46;;;;;;;10.18;5.00;;;28.10;75.70;;;;;;5006892;28;20069;-82
2023/09/08 11:25:16;;;;;;;7.28;4.80;;;28.10;75.10;;;;;;5011155;28;20045;-80
2023/09/08 11:27:44;;;;;;;8.70;4.80;;;28.20;73.60;;;;;;5011206;28;20030;-80
2023/09/08 11:30:13;;;;;;;9.23;5.28;;;27.70;74.00;;;;;;5009491;28;20061;-80
2023/09/08 11:32:40;;;;;;;9.45;4.70;;;27.80;75.40;;;;;;5019464;28;20132;-79
2023/09/08 11:35:10;;;;;;;9.95;5.10;;;28.00;74.60;;;;;;5015043;28;20468;-81
2023/09/08 11:37:39;;;;;;;7.18;4.72;;;28.10;73.10;;;;;;5020843;28;20052;-80
2023/09/08 11:40:12;;;;;;;8.57;4.93;;;28.50;74.10;;;;;;5024247;28;20048;-81
2023/09/08 11:42:46;;;;;;;8.50;4.50;;;28.60;71.90;;;;;;5022115;28;20117;-81
2023/09/08 11:45:17;;;;;;;7.80;5.07;;;28.70;71.30;;;;;;5011826;28;20041;-81
2023/09/08 11:47:45;;;;;;;8.85;4.40;;;29.10;71.20;;;;;;5018471;28;20047;-81
2023/09/08 11:50:15;;;;;;;9.07;4.78;;;29.60;71.10;;;;;;5021886;28;20048;-81
2023/09/08 11:52:46;;;;;;;9.38;3.90;;;28.90;69.40;;;;;;5018765;28;20042;-80
2023/09/08 11:55:16;;;;;;;8.73;4.22;;;28.70;70.30;;;;;;5017192;28;20137;-82
2023/09/08 11:57:48;;;;;;;17.75;6.32;;;28.30;70.50;;;;;;5007436;28;20045;-79
2023/09/08 12:00:22;;;;;;;13.48;5.40;;;29.10;70.70;;;;;;5017032;28;20116;-79
2023/09/08 12:03:20;;;;;;;7.65;4.97;;;30.00;69.00;;;;;;5008370;28;20042;-81
2023/09/08 12:05:55;;;;;;;18.27;7.07;;;30.50;67.70;;;;;;5029749;28;20112;-81
2023/09/08 12:08:30;;;;;;;10.57;5.13;;;30.80;68.40;;;;;;5011042;28;20044;-78
2023/09/08 12:11:03;;;;;;;10.35;4.47;;;30.90;66.40;;;;;;5008708;28;20037;-78
2023/09/08 12:13:38;;;;;;;8.23;4.45;;;30.70;65.90;;;;;;5022004;28;20053;-79
2023/09/08 12:16:27;;;;;;;16.83;6.15;;;30.80;66.50;;;;;;5027432;28;20052;-79
2023/09/08 12:18:57;;;;;;;14.18;6.28;;;31.20;66.50;;;;;;5019085;28;20056;-81
2023/09/08 12:21:26;;;;;;;12.40;5.30;;;31.20;65.90;;;;;;5006097;28;20046;-79
2023/09/08 12:23:57;;;;;;;12.77;4.95;;;31.40;65.00;;;;;;5007248;28;20050;-79
2023/09/08 12:26:29;;;;;;;13.82;4.75;;;31.10;64.30;;;;;;5014500;28;20498;-78
2023/09/08 12:29:03;;;;;;;11.05;6.20;;;30.90;64.50;;;;;;5020241;28;20404;-79
2023/09/08 12:31:35;;;;;;;11.85;6.47;;;31.20;65.20;;;;;;5021561;28;20065;-78
2023/09/08 12:34:05;;;;;;;11.85;5.85;;;31.50;64.80;;;;;;4996032;28;20073;-76
2023/09/08 12:36:56;;;;;;;9.35;4.65;;;31.70;63.60;;;;;;5015688;28;20544;-80
2023/09/08 12:39:29;;;;;;;11.02;5.68;;;30.70;64.60;;;;;;5022237;28;20049;-79
2023/09/08 12:41:58;;;;;;;13.43;7.22;;;30.70;65.20;;;;;;5007870;28;20073;-78
2023/09/08 12:44:26;;;;;;;9.82;5.18;;;31.80;64.20;;;;;;5020700;28;20047;-79
2023/09/08 12:46:54;;;;;;;17.60;6.63;;;32.40;61.80;;;;;;5017646;28;20033;-81
2023/09/08 12:49:22;;;;;;;12.10;5.60;;;32.60;62.00;;;;;;5021777;28;20512;-79
2023/09/08 12:51:49;;;;;;;14.40;5.45;;;32.60;61.50;;;;;;5018815;28;20038;-79
2023/09/08 12:54:16;;;;;;;11.02;5.70;;;32.60;61.30;;;;;;5011683;28;20109;-79